sensor_id;sensor_type;location;lat;lon;timestamp;temperature;humidity
15543;DHT22;7873;52.230;12.856;2022-12-07T00:01:16;24.60;38.10
15543;DHT22;7873;52.230;12.856;2022-12-07T00:03:45;24.60;38.30
15543;DHT22;7873;52.230;12.856;2022-12-07T00:06:15;24.60;38.40
15543;DHT22;7873;52.230;12.856;2022-12-07T00:08:43;24.50;38.40
15543;DHT22;7873;52.230;12.856;2022-12-07T00:11:12;24.50;38.50
15543;DHT22;7873;52.230;12.856;2022-12-07T00:13:40;24.50;38.50
15543;DHT22;7873;52.230;12.856;2022-12-07T00:16:09;24.50;38.50
15543;DHT22;7873;52.230;12.856;2022-12-07T00:18:38;24.40;38.60
15543;DHT22;7873;52.230;12.856;2022-12-07T00:21:06;24.40;38.80
15543;DHT22;7873;52.230;12.856;2022-12-07T00:23:37;24.40;38.70
15543;DHT22;7873;52.230;12.856;2022-12-07T00:26:05;24.40;38.80
15543;DHT22;7873;52.230;12.856;2022-12-07T00:28:32;24.30;38.90
15543;DHT22;7873;52.230;12.856;2022-12-07T00:31:01;24.30;39.00
15543;DHT22;7873;52.230;12.856;2022-12-07T00:33:29;24.20;39.10
15543;DHT22;7873;52.230;12.856;2022-12-07T00:35:56;24.20;39.30
15543;DHT22;7873;52.230;12.856;2022-12-07T00:38:23;24.20;39.30
15543;DHT22;7873;52.230;12.856;2022-12-07T00:40:55;24.10;39.30
15543;DHT22;7873;52.230;12.856;2022-12-07T00:43:22;24.10;39.40
15543;DHT22;7873;52.230;12.856;2022-12-07T00:45:49;24.10;39.20
15543;DHT22;7873;52.230;12.856;2022-12-07T00:48:16;24.20;39.20
15543;DHT22;7873;52.230;12.856;2022-12-07T00:50:43;24.30;39.10
15543;DHT22;7873;52.230;12.856;2022-12-07T00:53:09;24.30;39.00
15543;DHT22;7873;52.230;12.856;2022-12-07T00:55:36;24.30;39.00
15543;DHT22;7873;52.230;12.856;2022-12-07T00:58:04;24.30;39.00
15543;DHT22;7873;52.230;12.856;2022-12-07T01:00:31;24.30;39.00
15543;DHT22;7873;52.230;12.856;2022-12-07T01:02:59;24.30;39.10
15543;DHT22;7873;52.230;12.856;2022-12-07T01:05:26;24.30;39.20
15543;DHT22;7873;52.230;12.856;2022-12-07T01:07:53;24.30;39.20
15543;DHT22;7873;52.230;12.856;2022-12-07T01:10:20;24.30;39.20
15543;DHT22;7873;52.230;12.856;2022-12-07T01:12:47;24.20;39.20
15543;DHT22;7873;52.230;12.856;2022-12-07T01:15:15;24.20;39.30
15543;DHT22;7873;52.230;12.856;2022-12-07T01:17:41;24.10;39.40
15543;DHT22;7873;52.230;12.856;2022-12-07T01:20:08;24.10;39.40
15543;DHT22;7873;52.230;12.856;2022-12-07T01:22:36;24.10;39.60
15543;DHT22;7873;52.230;12.856;2022-12-07T01:25:04;24.00;39.70
15543;DHT22;7873;52.230;12.856;2022-12-07T01:27:31;23.90;40.00
15543;DHT22;7873;52.230;12.856;2022-12-07T01:29:58;23.90;40.10
15543;DHT22;7873;52.230;12.856;2022-12-07T01:32:27;23.80;40.20
15543;DHT22;7873;52.230;12.856;2022-12-07T01:34:54;23.80;40.30
15543;DHT22;7873;52.230;12.856;2022-12-07T01:37:21;23.80;40.30
15543;DHT22;7873;52.230;12.856;2022-12-07T01:39:48;23.80;40.20
15543;DHT22;7873;52.230;12.856;2022-12-07T01:42:15;23.70;40.20
15543;DHT22;7873;52.230;12.856;2022-12-07T01:47:46;23.80;40.20
15543;DHT22;7873;52.230;12.856;2022-12-07T01:50:15;23.90;40.10
15543;DHT22;7873;52.230;12.856;2022-12-07T01:52:43;23.80;40.10
15543;DHT22;7873;52.230;12.856;2022-12-07T01:55:12;23.80;40.10
15543;DHT22;7873;52.230;12.856;2022-12-07T01:57:41;23.90;40.20
15543;DHT22;7873;52.230;12.856;2022-12-07T02:00:12;23.80;40.20
15543;DHT22;7873;52.230;12.856;2022-12-07T02:02:41;23.90;40.20
15543;DHT22;7873;52.230;12.856;2022-12-07T02:05:11;23.80;40.10
15543;DHT22;7873;52.230;12.856;2022-12-07T02:07:40;23.80;40.30
15543;DHT22;7873;52.230;12.856;2022-12-07T02:10:13;23.80;40.30
15543;DHT22;7873;52.230;12.856;2022-12-07T02:12:41;23.80;40.30
15543;DHT22;7873;52.230;12.856;2022-12-07T02:15:10;23.80;40.40
15543;DHT22;7873;52.230;12.856;2022-12-07T02:17:39;23.70;40.40
15543;DHT22;7873;52.230;12.856;2022-12-07T02:20:22;23.70;40.40
15543;DHT22;7873;52.230;12.856;2022-12-07T02:23:00;23.70;40.60
15543;DHT22;7873;52.230;12.856;2022-12-07T02:25:49;23.70;40.70
15543;DHT22;7873;52.230;12.856;2022-12-07T02:28:29;23.60;40.60
15543;DHT22;7873;52.230;12.856;2022-12-07T02:31:01;23.60;40.80
15543;DHT22;7873;52.230;12.856;2022-12-07T02:33:35;23.60;40.90
15543;DHT22;7873;52.230;12.856;2022-12-07T02:36:08;23.60;40.90
15543;DHT22;7873;52.230;12.856;2022-12-07T02:38:39;23.50;40.90
15543;DHT22;7873;52.230;12.856;2022-12-07T02:41:14;23.50;40.90
15543;DHT22;7873;52.230;12.856;2022-12-07T02:43:47;23.50;40.90
15543;DHT22;7873;52.230;12.856;2022-12-07T02:46:20;23.50;41.10
15543;DHT22;7873;52.230;12.856;2022-12-07T02:48:49;23.50;41.00
15543;DHT22;7873;52.230;12.856;2022-12-07T02:51:17;23.50;41.00
15543;DHT22;7873;52.230;12.856;2022-12-07T02:53:45;23.50;40.90
15543;DHT22;7873;52.230;12.856;2022-12-07T02:56:13;23.50;41.10
15543;DHT22;7873;52.230;12.856;2022-12-07T02:58:59;23.50;41.00
15543;DHT22;7873;52.230;12.856;2022-12-07T03:01:35;23.50;41.10
15543;DHT22;7873;52.230;12.856;2022-12-07T03:04:12;23.50;41.10
15543;DHT22;7873;52.230;12.856;2022-12-07T03:06:51;23.50;41.10
15543;DHT22;7873;52.230;12.856;2022-12-07T03:09:25;23.50;41.00
15543;DHT22;7873;52.230;12.856;2022-12-07T03:12:00;23.50;41.20
15543;DHT22;7873;52.230;12.856;2022-12-07T03:14:34;23.40;41.20
15543;DHT22;7873;52.230;12.856;2022-12-07T03:17:07;23.40;41.20
15543;DHT22;7873;52.230;12.856;2022-12-07T03:19:39;23.40;41.20
15543;DHT22;7873;52.230;12.856;2022-12-07T03:22:07;23.40;41.40
15543;DHT22;7873;52.230;12.856;2022-12-07T03:24:37;23.40;41.40
15543;DHT22;7873;52.230;12.856;2022-12-07T03:27:07;23.40;41.40
15543;DHT22;7873;52.230;12.856;2022-12-07T03:29:40;23.40;41.30
15543;DHT22;7873;52.230;12.856;2022-12-07T03:32:13;23.30;41.40
15543;DHT22;7873;52.230;12.856;2022-12-07T03:34:44;23.30;41.50
15543;DHT22;7873;52.230;12.856;2022-12-07T03:37:17;23.30;41.50
15543;DHT22;7873;52.230;12.856;2022-12-07T03:39:49;23.30;41.50
15543;DHT22;7873;52.230;12.856;2022-12-07T03:42:23;23.20;41.70
15543;DHT22;7873;52.230;12.856;2022-12-07T03:44:49;23.20;41.90
15543;DHT22;7873;52.230;12.856;2022-12-07T03:47:20;23.20;41.90
15543;DHT22;7873;52.230;12.856;2022-12-07T03:49:55;23.10;41.90
15543;DHT22;7873;52.230;12.856;2022-12-07T03:52:28;23.10;41.90
15543;DHT22;7873;52.230;12.856;2022-12-07T03:55:00;23.10;41.90
15543;DHT22;7873;52.230;12.856;2022-12-07T03:57:33;23.10;42.00
15543;DHT22;7873;52.230;12.856;2022-12-07T04:00:00;23.10;41.90
15543;DHT22;7873;52.230;12.856;2022-12-07T04:02:31;23.10;41.90
15543;DHT22;7873;52.230;12.856;2022-12-07T04:05:00;23.10;42.00
15543;DHT22;7873;52.230;12.856;2022-12-07T04:07:27;23.10;42.70
15543;DHT22;7873;52.230;12.856;2022-12-07T04:09:54;23.10;42.00
15543;DHT22;7873;52.230;12.856;2022-12-07T04:12:21;23.00;42.00
15543;DHT22;7873;52.230;12.856;2022-12-07T04:14:48;23.00;42.00
15543;DHT22;7873;52.230;12.856;2022-12-07T04:17:14;23.00;42.10
15543;DHT22;7873;52.230;12.856;2022-12-07T04:19:42;23.00;42.10
15543;DHT22;7873;52.230;12.856;2022-12-07T04:22:09;23.00;42.10
15543;DHT22;7873;52.230;12.856;2022-12-07T04:24:36;23.00;41.90
15543;DHT22;7873;52.230;12.856;2022-12-07T04:27:03;23.00;41.70
15543;DHT22;7873;52.230;12.856;2022-12-07T04:29:30;23.00;41.70
15543;DHT22;7873;52.230;12.856;2022-12-07T04:31:56;23.00;41.50
15543;DHT22;7873;52.230;12.856;2022-12-07T04:34:23;23.10;41.10
15543;DHT22;7873;52.230;12.856;2022-12-07T04:36:51;23.20;41.00
15543;DHT22;7873;52.230;12.856;2022-12-07T04:39:19;23.30;40.80
15543;DHT22;7873;52.230;12.856;2022-12-07T04:41:47;23.30;39.50
15543;DHT22;7873;52.230;12.856;2022-12-07T04:44:15;23.30;39.40
15543;DHT22;7873;52.230;12.856;2022-12-07T04:46:42;23.50;38.90
15543;DHT22;7873;52.230;12.856;2022-12-07T04:49:10;23.60;39.20
15543;DHT22;7873;52.230;12.856;2022-12-07T04:51:37;23.80;38.30
15543;DHT22;7873;52.230;12.856;2022-12-07T04:54:05;23.90;37.60
15543;DHT22;7873;52.230;12.856;2022-12-07T04:56:32;23.90;38.20
15543;DHT22;7873;52.230;12.856;2022-12-07T04:59:00;23.90;38.30
15543;DHT22;7873;52.230;12.856;2022-12-07T05:01:28;23.90;37.80
15543;DHT22;7873;52.230;12.856;2022-12-07T05:03:55;23.90;37.80
15543;DHT22;7873;52.230;12.856;2022-12-07T05:06:22;23.90;38.10
15543;DHT22;7873;52.230;12.856;2022-12-07T05:08:48;23.90;37.80
15543;DHT22;7873;52.230;12.856;2022-12-07T05:11:17;23.90;38.00
15543;DHT22;7873;52.230;12.856;2022-12-07T05:13:57;23.80;37.70
15543;DHT22;7873;52.230;12.856;2022-12-07T05:16:24;23.70;37.90
15543;DHT22;7873;52.230;12.856;2022-12-07T05:18:51;23.80;37.50
15543;DHT22;7873;52.230;12.856;2022-12-07T05:21:17;23.70;37.60
15543;DHT22;7873;52.230;12.856;2022-12-07T05:23:44;23.60;38.50
15543;DHT22;7873;52.230;12.856;2022-12-07T05:26:11;23.60;38.30
15543;DHT22;7873;52.230;12.856;2022-12-07T05:28:39;23.50;38.90
15543;DHT22;7873;52.230;12.856;2022-12-07T05:31:05;23.40;37.50
15543;DHT22;7873;52.230;12.856;2022-12-07T05:33:32;23.20;38.10
15543;DHT22;7873;52.230;12.856;2022-12-07T05:35:59;23.20;39.50
15543;DHT22;7873;52.230;12.856;2022-12-07T05:38:30;23.00;37.20
15543;DHT22;7873;52.230;12.856;2022-12-07T05:40:59;22.70;37.20
15543;DHT22;7873;52.230;12.856;2022-12-07T05:43:27;22.60;37.00
15543;DHT22;7873;52.230;12.856;2022-12-07T05:45:54;22.50;37.80
15543;DHT22;7873;52.230;12.856;2022-12-07T05:48:21;22.50;38.80
15543;DHT22;7873;52.230;12.856;2022-12-07T05:50:48;22.60;39.20
15543;DHT22;7873;52.230;12.856;2022-12-07T05:53:15;22.60;39.30
15543;DHT22;7873;52.230;12.856;2022-12-07T05:55:41;22.60;39.30
15543;DHT22;7873;52.230;12.856;2022-12-07T05:58:08;22.70;39.40
15543;DHT22;7873;52.230;12.856;2022-12-07T06:00:55;22.80;39.40
15543;DHT22;7873;52.230;12.856;2022-12-07T06:03:22;22.80;39.20
15543;DHT22;7873;52.230;12.856;2022-12-07T06:05:49;22.80;39.40
15543;DHT22;7873;52.230;12.856;2022-12-07T06:08:15;22.80;39.80
15543;DHT22;7873;52.230;12.856;2022-12-07T06:10:42;22.80;39.50
15543;DHT22;7873;52.230;12.856;2022-12-07T06:13:09;22.80;39.60
15543;DHT22;7873;52.230;12.856;2022-12-07T06:15:35;22.70;39.90
15543;DHT22;7873;52.230;12.856;2022-12-07T06:18:05;22.80;39.90
15543;DHT22;7873;52.230;12.856;2022-12-07T06:20:31;22.70;39.80
15543;DHT22;7873;52.230;12.856;2022-12-07T06:22:58;22.60;38.30
15543;DHT22;7873;52.230;12.856;2022-12-07T06:25:25;22.40;38.70
15543;DHT22;7873;52.230;12.856;2022-12-07T06:27:51;22.30;38.90
15543;DHT22;7873;52.230;12.856;2022-12-07T06:30:20;22.20;39.10
15543;DHT22;7873;52.230;12.856;2022-12-07T06:32:47;22.10;39.10
15543;DHT22;7873;52.230;12.856;2022-12-07T06:35:15;22.10;39.00
15543;DHT22;7873;52.230;12.856;2022-12-07T06:37:41;22.10;39.40
15543;DHT22;7873;52.230;12.856;2022-12-07T06:40:08;22.10;39.30
15543;DHT22;7873;52.230;12.856;2022-12-07T06:42:36;22.10;39.50
15543;DHT22;7873;52.230;12.856;2022-12-07T06:45:03;22.00;39.50
15543;DHT22;7873;52.230;12.856;2022-12-07T06:47:30;22.10;39.70
15543;DHT22;7873;52.230;12.856;2022-12-07T06:49:56;22.00;39.50
15543;DHT22;7873;52.230;12.856;2022-12-07T06:52:24;22.10;39.50
15543;DHT22;7873;52.230;12.856;2022-12-07T06:54:51;22.10;39.90
15543;DHT22;7873;52.230;12.856;2022-12-07T06:57:18;22.10;40.20
15543;DHT22;7873;52.230;12.856;2022-12-07T06:59:45;22.00;39.70
15543;DHT22;7873;52.230;12.856;2022-12-07T07:02:12;22.10;39.70
15543;DHT22;7873;52.230;12.856;2022-12-07T07:04:38;22.10;39.90
15543;DHT22;7873;52.230;12.856;2022-12-07T07:07:05;22.10;40.00
15543;DHT22;7873;52.230;12.856;2022-12-07T07:09:33;22.00;40.10
15543;DHT22;7873;52.230;12.856;2022-12-07T07:12:00;22.00;40.20
15543;DHT22;7873;52.230;12.856;2022-12-07T07:14:26;22.00;40.30
15543;DHT22;7873;52.230;12.856;2022-12-07T07:16:53;21.90;40.30
15543;DHT22;7873;52.230;12.856;2022-12-07T07:19:20;21.90;40.30
15543;DHT22;7873;52.230;12.856;2022-12-07T07:21:47;21.90;40.40
15543;DHT22;7873;52.230;12.856;2022-12-07T07:24:13;21.90;40.40
15543;DHT22;7873;52.230;12.856;2022-12-07T07:26:41;21.80;40.50
15543;DHT22;7873;52.230;12.856;2022-12-07T07:29:08;21.80;40.60
15543;DHT22;7873;52.230;12.856;2022-12-07T07:31:35;21.80;41.40
15543;DHT22;7873;52.230;12.856;2022-12-07T07:34:02;21.80;40.70
15543;DHT22;7873;52.230;12.856;2022-12-07T07:36:29;21.70;40.70
15543;DHT22;7873;52.230;12.856;2022-12-07T07:38:55;21.70;40.70
15543;DHT22;7873;52.230;12.856;2022-12-07T07:41:22;21.70;40.80
15543;DHT22;7873;52.230;12.856;2022-12-07T07:43:50;21.70;41.60
15543;DHT22;7873;52.230;12.856;2022-12-07T07:46:17;21.60;40.80
15543;DHT22;7873;52.230;12.856;2022-12-07T07:48:43;21.60;40.80
15543;DHT22;7873;52.230;12.856;2022-12-07T07:51:10;21.60;40.80
15543;DHT22;7873;52.230;12.856;2022-12-07T07:53:37;21.60;40.80
15543;DHT22;7873;52.230;12.856;2022-12-07T07:56:03;21.60;40.90
15543;DHT22;7873;52.230;12.856;2022-12-07T07:58:30;21.50;40.90
15543;DHT22;7873;52.230;12.856;2022-12-07T08:00:58;21.50;41.00
15543;DHT22;7873;52.230;12.856;2022-12-07T08:03:30;21.50;41.00
15543;DHT22;7873;52.230;12.856;2022-12-07T08:05:56;21.50;40.90
15543;DHT22;7873;52.230;12.856;2022-12-07T08:08:23;21.50;41.00
15543;DHT22;7873;52.230;12.856;2022-12-07T08:10:50;21.50;41.00
15543;DHT22;7873;52.230;12.856;2022-12-07T08:13:16;21.40;41.00
15543;DHT22;7873;52.230;12.856;2022-12-07T08:15:45;21.40;41.00
15543;DHT22;7873;52.230;12.856;2022-12-07T08:18:15;21.40;41.00
15543;DHT22;7873;52.230;12.856;2022-12-07T08:20:42;21.40;41.00
15543;DHT22;7873;52.230;12.856;2022-12-07T08:23:09;21.40;40.90
15543;DHT22;7873;52.230;12.856;2022-12-07T08:25:37;21.40;41.00
15543;DHT22;7873;52.230;12.856;2022-12-07T08:28:04;21.40;41.00
15543;DHT22;7873;52.230;12.856;2022-12-07T08:30:31;21.30;41.10
15543;DHT22;7873;52.230;12.856;2022-12-07T08:32:58;21.30;41.00
15543;DHT22;7873;52.230;12.856;2022-12-07T08:35:26;21.30;41.10
15543;DHT22;7873;52.230;12.856;2022-12-07T08:37:52;21.30;41.10
15543;DHT22;7873;52.230;12.856;2022-12-07T08:40:19;21.30;41.10
15543;DHT22;7873;52.230;12.856;2022-12-07T08:42:48;21.30;41.10
15543;DHT22;7873;52.230;12.856;2022-12-07T08:45:16;21.30;41.10
15543;DHT22;7873;52.230;12.856;2022-12-07T08:47:44;21.20;41.10
15543;DHT22;7873;52.230;12.856;2022-12-07T08:50:13;21.20;41.20
15543;DHT22;7873;52.230;12.856;2022-12-07T08:52:42;21.20;41.20
15543;DHT22;7873;52.230;12.856;2022-12-07T08:55:09;21.20;41.20
15543;DHT22;7873;52.230;12.856;2022-12-07T08:57:37;21.20;41.20
15543;DHT22;7873;52.230;12.856;2022-12-07T09:00:05;21.20;41.20
15543;DHT22;7873;52.230;12.856;2022-12-07T09:02:33;21.20;41.20
15543;DHT22;7873;52.230;12.856;2022-12-07T09:05:00;21.20;41.20
15543;DHT22;7873;52.230;12.856;2022-12-07T09:07:26;21.20;41.30
15543;DHT22;7873;52.230;12.856;2022-12-07T09:09:55;21.10;41.20
15543;DHT22;7873;52.230;12.856;2022-12-07T09:12:21;21.10;41.30
15543;DHT22;7873;52.230;12.856;2022-12-07T09:14:48;21.10;41.30
15543;DHT22;7873;52.230;12.856;2022-12-07T09:17:15;21.10;41.30
15543;DHT22;7873;52.230;12.856;2022-12-07T09:19:41;21.10;41.40
15543;DHT22;7873;52.230;12.856;2022-12-07T09:22:08;21.10;41.30
15543;DHT22;7873;52.230;12.856;2022-12-07T09:24:36;21.10;41.30
15543;DHT22;7873;52.230;12.856;2022-12-07T09:27:04;21.10;41.40
15543;DHT22;7873;52.230;12.856;2022-12-07T09:29:30;21.00;41.40
15543;DHT22;7873;52.230;12.856;2022-12-07T09:31:57;21.00;41.40
15543;DHT22;7873;52.230;12.856;2022-12-07T09:34:24;21.00;41.40
15543;DHT22;7873;52.230;12.856;2022-12-07T09:36:51;21.00;41.40
15543;DHT22;7873;52.230;12.856;2022-12-07T09:39:18;21.00;41.40
15543;DHT22;7873;52.230;12.856;2022-12-07T09:41:45;21.00;41.40
15543;DHT22;7873;52.230;12.856;2022-12-07T09:44:13;21.00;41.50
15543;DHT22;7873;52.230;12.856;2022-12-07T09:46:43;21.00;41.50
15543;DHT22;7873;52.230;12.856;2022-12-07T09:49:12;21.00;41.40
15543;DHT22;7873;52.230;12.856;2022-12-07T09:51:41;21.00;41.40
15543;DHT22;7873;52.230;12.856;2022-12-07T09:54:08;21.00;41.40
15543;DHT22;7873;52.230;12.856;2022-12-07T09:56:39;21.00;41.50
15543;DHT22;7873;52.230;12.856;2022-12-07T09:59:06;21.00;41.50
15543;DHT22;7873;52.230;12.856;2022-12-07T10:01:41;20.90;41.40
15543;DHT22;7873;52.230;12.856;2022-12-07T10:04:09;20.90;41.40
15543;DHT22;7873;52.230;12.856;2022-12-07T10:06:38;20.90;41.40
15543;DHT22;7873;52.230;12.856;2022-12-07T10:09:08;20.90;41.50
15543;DHT22;7873;52.230;12.856;2022-12-07T10:14:24;20.90;41.60
15543;DHT22;7873;52.230;12.856;2022-12-07T10:16:55;20.90;41.50
15543;DHT22;7873;52.230;12.856;2022-12-07T10:19:24;20.90;41.60
15543;DHT22;7873;52.230;12.856;2022-12-07T10:21:59;20.90;41.60
15543;DHT22;7873;52.230;12.856;2022-12-07T10:24:27;20.90;41.60
15543;DHT22;7873;52.230;12.856;2022-12-07T10:26:54;20.80;41.60
15543;DHT22;7873;52.230;12.856;2022-12-07T10:29:22;20.80;41.60
15543;DHT22;7873;52.230;12.856;2022-12-07T10:31:51;20.80;41.60
15543;DHT22;7873;52.230;12.856;2022-12-07T10:34:23;20.80;41.60
15543;DHT22;7873;52.230;12.856;2022-12-07T10:36:51;20.80;41.70
15543;DHT22;7873;52.230;12.856;2022-12-07T10:39:20;20.80;41.70
15543;DHT22;7873;52.230;12.856;2022-12-07T10:41:54;20.80;41.70
15543;DHT22;7873;52.230;12.856;2022-12-07T10:44:23;20.70;41.60
15543;DHT22;7873;52.230;12.856;2022-12-07T10:49:48;20.70;41.70
15543;DHT22;7873;52.230;12.856;2022-12-07T10:52:37;20.70;41.60
15543;DHT22;7873;52.230;12.856;2022-12-07T10:55:15;20.70;41.60
15543;DHT22;7873;52.230;12.856;2022-12-07T10:57:49;20.70;41.70
15543;DHT22;7873;52.230;12.856;2022-12-07T11:00:27;20.70;41.60
15543;DHT22;7873;52.230;12.856;2022-12-07T11:03:09;20.70;41.60
15543;DHT22;7873;52.230;12.856;2022-12-07T11:05:59;20.70;41.60
15543;DHT22;7873;52.230;12.856;2022-12-07T11:08:41;20.70;41.70
15543;DHT22;7873;52.230;12.856;2022-12-07T11:11:18;20.70;41.70
15543;DHT22;7873;52.230;12.856;2022-12-07T11:13:53;20.60;41.80
15543;DHT22;7873;52.230;12.856;2022-12-07T11:16:30;20.60;41.80
15543;DHT22;7873;52.230;12.856;2022-12-07T11:19:20;20.60;41.80
15543;DHT22;7873;52.230;12.856;2022-12-07T11:22:18;20.60;41.80
15543;DHT22;7873;52.230;12.856;2022-12-07T11:24:51;20.60;41.80
15543;DHT22;7873;52.230;12.856;2022-12-07T11:27:23;20.60;41.80
15543;DHT22;7873;52.230;12.856;2022-12-07T11:30:02;20.60;41.80
15543;DHT22;7873;52.230;12.856;2022-12-07T11:32:41;20.60;41.90
15543;DHT22;7873;52.230;12.856;2022-12-07T11:35:18;20.60;42.60
15543;DHT22;7873;52.230;12.856;2022-12-07T11:37:57;20.50;41.80
15543;DHT22;7873;52.230;12.856;2022-12-07T11:40:27;20.60;41.90
15543;DHT22;7873;52.230;12.856;2022-12-07T11:43:01;20.60;41.90
15543;DHT22;7873;52.230;12.856;2022-12-07T11:45:30;20.50;41.80
15543;DHT22;7873;52.230;12.856;2022-12-07T11:47:59;20.60;41.80
15543;DHT22;7873;52.230;12.856;2022-12-07T11:50:31;20.60;42.00
15543;DHT22;7873;52.230;12.856;2022-12-07T11:53:02;20.60;41.80
15543;DHT22;7873;52.230;12.856;2022-12-07T11:55:38;20.50;41.80
15543;DHT22;7873;52.230;12.856;2022-12-07T11:58:13;20.50;41.80
15543;DHT22;7873;52.230;12.856;2022-12-07T12:00:49;20.50;41.80
15543;DHT22;7873;52.230;12.856;2022-12-07T12:03:20;20.50;41.80
15543;DHT22;7873;52.230;12.856;2022-12-07T12:05:55;20.50;41.80
15543;DHT22;7873;52.230;12.856;2022-12-07T12:08:24;20.50;41.90
15543;DHT22;7873;52.230;12.856;2022-12-07T12:10:55;20.50;41.90
15543;DHT22;7873;52.230;12.856;2022-12-07T12:16:28;20.50;41.90
15543;DHT22;7873;52.230;12.856;2022-12-07T12:19:19;20.50;41.90
15543;DHT22;7873;52.230;12.856;2022-12-07T12:21:53;20.50;41.90
15543;DHT22;7873;52.230;12.856;2022-12-07T12:24:24;20.50;41.90
15543;DHT22;7873;52.230;12.856;2022-12-07T12:26:53;20.40;41.80
15543;DHT22;7873;52.230;12.856;2022-12-07T12:29:27;20.40;41.90
15543;DHT22;7873;52.230;12.856;2022-12-07T12:32:05;20.40;42.60
15543;DHT22;7873;52.230;12.856;2022-12-07T12:34:38;20.40;41.90
15543;DHT22;7873;52.230;12.856;2022-12-07T12:58:40;20.30;42.00
15543;DHT22;7873;52.230;12.856;2022-12-07T13:04:28;20.30;42.10
15543;DHT22;7873;52.230;12.856;2022-12-07T13:07:03;20.30;42.10
15543;DHT22;7873;52.230;12.856;2022-12-07T13:09:31;20.30;42.10
15543;DHT22;7873;52.230;12.856;2022-12-07T13:12:02;20.30;42.10
15543;DHT22;7873;52.230;12.856;2022-12-07T13:23:12;20.20;42.90
15543;DHT22;7873;52.230;12.856;2022-12-07T13:25:45;20.20;42.20
15543;DHT22;7873;52.230;12.856;2022-12-07T13:28:16;20.20;42.30
15543;DHT22;7873;52.230;12.856;2022-12-07T13:30:53;20.10;42.20
15543;DHT22;7873;52.230;12.856;2022-12-07T13:33:28;20.10;42.30
15543;DHT22;7873;52.230;12.856;2022-12-07T13:35:55;20.10;42.30
15543;DHT22;7873;52.230;12.856;2022-12-07T13:38:26;20.10;42.30
15543;DHT22;7873;52.230;12.856;2022-12-07T13:41:01;20.10;42.30
15543;DHT22;7873;52.230;12.856;2022-12-07T13:43:29;20.10;42.30
15543;DHT22;7873;52.230;12.856;2022-12-07T13:45:58;20.00;42.30
15543;DHT22;7873;52.230;12.856;2022-12-07T13:48:28;20.00;42.30
15543;DHT22;7873;52.230;12.856;2022-12-07T13:50:58;20.00;42.30
15543;DHT22;7873;52.230;12.856;2022-12-07T13:53:27;20.00;42.30
15543;DHT22;7873;52.230;12.856;2022-12-07T13:55:56;20.00;42.30
15543;DHT22;7873;52.230;12.856;2022-12-07T13:58:23;20.00;42.30
15543;DHT22;7873;52.230;12.856;2022-12-07T14:00:50;20.00;42.30
15543;DHT22;7873;52.230;12.856;2022-12-07T14:03:29;20.00;42.30
15543;DHT22;7873;52.230;12.856;2022-12-07T14:09:08;20.00;42.30
15543;DHT22;7873;52.230;12.856;2022-12-07T14:11:41;20.00;42.30
15543;DHT22;7873;52.230;12.856;2022-12-07T14:14:10;20.00;42.30
15543;DHT22;7873;52.230;12.856;2022-12-07T14:16:42;20.00;42.20
15543;DHT22;7873;52.230;12.856;2022-12-07T14:22:07;20.00;42.20
15543;DHT22;7873;52.230;12.856;2022-12-07T14:24:41;20.00;42.10
15543;DHT22;7873;52.230;12.856;2022-12-07T14:27:15;20.00;42.10
15543;DHT22;7873;52.230;12.856;2022-12-07T14:29:44;20.00;42.10
15543;DHT22;7873;52.230;12.856;2022-12-07T14:32:19;20.00;42.10
15543;DHT22;7873;52.230;12.856;2022-12-07T14:34:53;20.00;42.00
15543;DHT22;7873;52.230;12.856;2022-12-07T14:37:26;20.00;42.10
15543;DHT22;7873;52.230;12.856;2022-12-07T14:39:53;20.00;42.00
15543;DHT22;7873;52.230;12.856;2022-12-07T14:42:20;20.00;41.90
15543;DHT22;7873;52.230;12.856;2022-12-07T14:44:50;20.00;42.00
15543;DHT22;7873;52.230;12.856;2022-12-07T14:47:17;20.00;41.90
15543;DHT22;7873;52.230;12.856;2022-12-07T14:49:44;20.00;41.90
15543;DHT22;7873;52.230;12.856;2022-12-07T14:52:13;20.00;42.60
15543;DHT22;7873;52.230;12.856;2022-12-07T14:54:43;20.00;41.90
15543;DHT22;7873;52.230;12.856;2022-12-07T14:57:10;20.00;41.80
15543;DHT22;7873;52.230;12.856;2022-12-07T14:59:37;20.00;41.80
15543;DHT22;7873;52.230;12.856;2022-12-07T15:02:04;20.00;41.80
15543;DHT22;7873;52.230;12.856;2022-12-07T15:04:32;20.00;41.70
15543;DHT22;7873;52.230;12.856;2022-12-07T15:07:00;20.00;41.60
15543;DHT22;7873;52.230;12.856;2022-12-07T15:09:29;20.10;41.20
15543;DHT22;7873;52.230;12.856;2022-12-07T15:11:57;19.90;41.40
15543;DHT22;7873;52.230;12.856;2022-12-07T15:14:23;19.90;41.60
15543;DHT22;7873;52.230;12.856;2022-12-07T15:16:50;19.90;41.80
15543;DHT22;7873;52.230;12.856;2022-12-07T15:19:18;19.80;41.90
15543;DHT22;7873;52.230;12.856;2022-12-07T15:21:48;19.70;41.60
15543;DHT22;7873;52.230;12.856;2022-12-07T15:24:15;19.70;41.90
15543;DHT22;7873;52.230;12.856;2022-12-07T15:26:42;19.70;41.90
15543;DHT22;7873;52.230;12.856;2022-12-07T15:29:10;19.70;42.00
15543;DHT22;7873;52.230;12.856;2022-12-07T15:31:39;19.70;42.00
15543;DHT22;7873;52.230;12.856;2022-12-07T15:34:06;19.70;42.10
15543;DHT22;7873;52.230;12.856;2022-12-07T15:36:33;19.70;41.80
15543;DHT22;7873;52.230;12.856;2022-12-07T15:39:01;19.40;38.10
15543;DHT22;7873;52.230;12.856;2022-12-07T15:41:27;18.70;36.40
15543;DHT22;7873;52.230;12.856;2022-12-07T15:43:54;17.90;37.60
15543;DHT22;7873;52.230;12.856;2022-12-07T15:46:40;17.30;38.80
15543;DHT22;7873;52.230;12.856;2022-12-07T15:49:09;16.70;39.90
15543;DHT22;7873;52.230;12.856;2022-12-07T15:51:37;16.40;40.40
15543;DHT22;7873;52.230;12.856;2022-12-07T15:54:04;16.50;41.30
15543;DHT22;7873;52.230;12.856;2022-12-07T15:56:31;17.10;41.10
15543;DHT22;7873;52.230;12.856;2022-12-07T15:58:58;17.70;40.40
15543;DHT22;7873;52.230;12.856;2022-12-07T16:01:24;18.20;39.80
15543;DHT22;7873;52.230;12.856;2022-12-07T16:03:52;18.50;39.20
15543;DHT22;7873;52.230;12.856;2022-12-07T16:06:19;18.80;38.60
15543;DHT22;7873;52.230;12.856;2022-12-07T16:08:46;19.00;38.30
15543;DHT22;7873;52.230;12.856;2022-12-07T16:11:13;19.30;38.00
15543;DHT22;7873;52.230;12.856;2022-12-07T16:13:40;19.40;37.80
15543;DHT22;7873;52.230;12.856;2022-12-07T16:16:07;19.60;37.40
15543;DHT22;7873;52.230;12.856;2022-12-07T16:18:36;19.70;38.00
15543;DHT22;7873;52.230;12.856;2022-12-07T16:21:04;19.90;37.00
15543;DHT22;7873;52.230;12.856;2022-12-07T16:23:32;20.10;36.70
15543;DHT22;7873;52.230;12.856;2022-12-07T16:26:06;20.30;36.20
15543;DHT22;7873;52.230;12.856;2022-12-07T16:28:33;20.40;36.00
15543;DHT22;7873;52.230;12.856;2022-12-07T16:31:01;20.60;35.80
15543;DHT22;7873;52.230;12.856;2022-12-07T16:33:33;20.80;35.80
15543;DHT22;7873;52.230;12.856;2022-12-07T16:36:00;21.00;35.70